Time;durP1;ratioP1;P1;durP2;ratioP2;P2;SDS_P1;SDS_P2;PMS_P1;PMS_P2;Temp;Humidity;BMP_temperature;BMP_pressure;BME280_temperature;BME280_humidity;BME280_pressure;Samples;Min_cycle;Max_cycle;Signal;HPM_P1;HPM_P2
2020/12/16 00:02:24;;;;;;;1999.90;999.90;;;5.40;99.90;;;;;;5088375;28;20051;-90
2020/12/16 00:04:52;;;;;;;1999.90;999.90;;;5.50;99.90;;;;;;5085038;28;20425;-90
2020/12/16 00:07:20;;;;;;;1999.90;999.90;;;5.50;99.90;;;;;;5099782;28;20079;-90
2020/12/16 00:09:48;;;;;;;1999.90;999.90;;;5.50;99.90;;;;;;5093584;28;20514;-90
2020/12/16 00:12:15;;;;;;;1999.90;999.90;;;5.50;99.90;;;;;;5082915;28;20043;-90
2020/12/16 00:14:44;;;;;;;1999.90;999.90;;;5.60;99.90;;;;;;5124302;27;20078;-91
2020/12/16 00:17:12;;;;;;;1999.90;999.90;;;5.60;99.90;;;;;;5114151;28;20098;-91
2020/12/16 00:19:41;;;;;;;1999.90;999.90;;;5.60;99.90;;;;;;5114321;28;20059;-91
2020/12/16 00:22:08;;;;;;;1999.90;999.90;;;5.70;99.90;;;;;;5114552;28;20127;-91
2020/12/16 00:24:36;;;;;;;1999.90;999.90;;;5.70;99.90;;;;;;5124249;27;20059;-91
2020/12/16 00:27:03;;;;;;;1999.90;999.90;;;5.70;99.90;;;;;;5122153;27;20047;-90
2020/12/16 00:29:31;;;;;;;1999.90;999.90;;;5.80;99.90;;;;;;5116528;27;20391;-91
2020/12/16 00:31:58;;;;;;;1999.90;999.90;;;5.80;99.90;;;;;;5118783;27;20043;-91
2020/12/16 00:34:25;;;;;;;1999.90;999.90;;;5.90;99.90;;;;;;5121179;27;20075;-91
2020/12/16 00:36:52;;;;;;;1999.90;999.90;;;5.90;99.90;;;;;;5113745;27;20074;-91
2020/12/16 00:39:19;;;;;;;1999.90;999.90;;;6.00;99.90;;;;;;5114251;28;20054;-91
2020/12/16 00:41:46;;;;;;;1999.90;999.90;;;6.00;99.90;;;;;;5115382;27;20515;-91
2020/12/16 00:44:13;;;;;;;1999.90;999.90;;;6.10;99.90;;;;;;5128956;27;20039;-91
2020/12/16 00:46:41;;;;;;;1999.90;999.90;;;6.10;99.90;;;;;;5124456;28;20055;-91
2020/12/16 00:49:08;;;;;;;1999.90;999.90;;;6.20;99.90;;;;;;5133696;27;20043;-90
2020/12/16 00:51:35;;;;;;;1999.90;999.90;;;6.20;99.90;;;;;;5118108;27;20509;-90
2020/12/16 00:54:02;;;;;;;1999.90;999.90;;;6.20;99.90;;;;;;5113404;28;20063;-90
2020/12/16 00:56:29;;;;;;;1999.90;999.90;;;6.20;99.90;;;;;;5115088;27;20124;-91
2020/12/16 00:58:56;;;;;;;1999.90;999.90;;;6.30;99.90;;;;;;5113731;28;20108;-90
2020/12/16 01:01:23;;;;;;;1999.90;999.90;;;6.30;99.90;;;;;;5113582;28;20138;-90
2020/12/16 01:03:51;;;;;;;1999.90;999.90;;;6.30;99.90;;;;;;5112785;28;20048;-91
2020/12/16 01:06:18;;;;;;;1999.90;999.90;;;6.30;99.90;;;;;;5117133;28;20134;-90
2020/12/16 01:08:45;;;;;;;1999.90;999.90;;;6.30;99.90;;;;;;5113712;28;20051;-90
2020/12/16 01:11:12;;;;;;;1999.90;999.90;;;6.40;99.90;;;;;;5114866;28;20141;-90
2020/12/16 01:13:39;;;;;;;1999.90;999.90;;;6.50;99.90;;;;;;5110422;28;20071;-91
2020/12/16 01:16:06;;;;;;;1999.90;999.90;;;6.50;99.90;;;;;;5113808;28;20196;-90
2020/12/16 01:18:34;;;;;;;1999.90;999.90;;;6.50;99.90;;;;;;5113476;28;20560;-91
2020/12/16 01:21:01;;;;;;;1999.90;999.90;;;6.50;99.90;;;;;;5107013;28;20079;-91
2020/12/16 01:23:28;;;;;;;1999.90;999.90;;;6.60;99.90;;;;;;5108902;28;20076;-89
2020/12/16 01:25:56;;;;;;;1999.90;999.90;;;6.60;99.90;;;;;;5115043;28;20387;-91
2020/12/16 01:28:23;;;;;;;1999.90;999.90;;;6.60;99.90;;;;;;5119805;28;20467;-91
2020/12/16 01:30:50;;;;;;;1999.90;999.90;;;6.60;99.90;;;;;;5112995;28;20526;-90
2020/12/16 01:33:17;;;;;;;1999.90;999.90;;;6.70;99.90;;;;;;5105365;28;20132;-91
2020/12/16 01:35:44;;;;;;;1999.90;999.90;;;6.70;99.90;;;;;;5120288;28;20047;-90
2020/12/16 01:38:11;;;;;;;1999.90;999.90;;;6.70;99.90;;;;;;5113557;28;20052;-90
2020/12/16 01:40:39;;;;;;;1999.90;999.90;;;6.70;99.90;;;;;;5107909;28;20567;-90
2020/12/16 01:43:06;;;;;;;1999.90;999.90;;;6.80;99.90;;;;;;5107252;28;20496;-91
2020/12/16 01:45:32;;;;;;;1999.90;999.90;;;6.80;99.90;;;;;;5114370;28;20135;-90
2020/12/16 01:47:59;;;;;;;1999.90;999.90;;;6.80;99.90;;;;;;5106782;28;20048;-90
2020/12/16 01:50:27;;;;;;;1999.90;999.90;;;6.80;99.90;;;;;;5113866;28;20105;-90
2020/12/16 01:52:57;;;;;;;1999.90;999.90;;;6.80;99.90;;;;;;5114754;28;20497;-90
2020/12/16 01:55:27;;;;;;;1999.90;999.90;;;6.90;99.90;;;;;;5116894;27;20047;-90
2020/12/16 01:57:59;;;;;;;1999.90;999.90;;;6.90;99.90;;;;;;5121435;27;20114;-90
2020/12/16 02:00:27;;;;;;;1999.90;999.90;;;6.90;99.90;;;;;;5120431;27;20047;-90
2020/12/16 02:02:56;;;;;;;1999.90;999.90;;;6.90;99.90;;;;;;5118346;27;20122;-90
2020/12/16 02:05:25;;;;;;;1999.90;999.90;;;6.90;99.90;;;;;;5126082;27;20086;-90
2020/12/16 02:07:55;;;;;;;1999.90;999.90;;;7.00;99.90;;;;;;5116571;28;20135;-90
2020/12/16 02:10:22;;;;;;;1999.90;999.90;;;7.00;99.90;;;;;;5116733;28;20096;-90
2020/12/16 02:12:50;;;;;;;1999.90;999.90;;;7.00;99.90;;;;;;5116553;27;20115;-90
2020/12/16 02:15:17;;;;;;;1999.90;999.90;;;7.00;99.90;;;;;;5102186;28;20482;-90
2020/12/16 02:17:44;;;;;;;1999.90;999.90;;;7.00;99.90;;;;;;5117676;27;20116;-90
2020/12/16 02:20:11;;;;;;;1999.90;999.90;;;7.00;99.90;;;;;;5106326;28;20478;-90
2020/12/16 02:22:38;;;;;;;1999.90;999.90;;;7.10;99.90;;;;;;5116259;28;20109;-91
2020/12/16 02:25:07;;;;;;;1999.90;999.90;;;7.10;99.90;;;;;;5115679;28;20047;-90
2020/12/16 02:27:35;;;;;;;1999.90;999.90;;;7.10;99.90;;;;;;5119225;27;20490;-91
2020/12/16 02:30:04;;;;;;;1999.90;999.90;;;7.10;99.90;;;;;;5117317;27;20145;-90
2020/12/16 02:32:36;;;;;;;1999.90;999.90;;;7.10;99.90;;;;;;5118019;27;20478;-90
2020/12/16 02:35:03;;;;;;;1999.90;999.90;;;7.10;99.90;;;;;;5116465;28;20082;-90
2020/12/16 02:37:30;;;;;;;1999.90;999.90;;;7.20;99.90;;;;;;5116193;28;20459;-91
2020/12/16 02:39:57;;;;;;;1999.90;999.90;;;7.20;99.90;;;;;;5117061;27;20112;-87
2020/12/16 02:42:27;;;;;;;1999.90;999.90;;;7.20;99.90;;;;;;5116016;28;20047;-87
2020/12/16 02:44:55;;;;;;;1999.90;999.90;;;7.20;99.90;;;;;;5116196;28;20120;-87
2020/12/16 02:47:22;;;;;;;1999.90;999.90;;;7.20;99.90;;;;;;5104049;27;20142;-87
2020/12/16 02:49:48;;;;;;;1999.90;999.90;;;7.20;99.90;;;;;;5123766;27;20149;-87
2020/12/16 02:52:15;;;;;;;1999.90;999.90;;;7.20;99.90;;;;;;5115698;28;20047;-87
2020/12/16 02:54:43;;;;;;;1999.90;999.90;;;7.20;99.90;;;;;;5115495;27;20051;-87
2020/12/16 02:57:10;;;;;;;1999.90;999.90;;;7.30;99.90;;;;;;5114292;28;20132;-87
2020/12/16 02:59:38;;;;;;;1999.90;999.90;;;7.30;99.90;;;;;;5114624;28;20085;-87
2020/12/16 03:02:05;;;;;;;1999.90;999.90;;;7.30;99.90;;;;;;5115438;27;20119;-87
2020/12/16 03:04:33;;;;;;;1999.90;999.90;;;7.20;99.90;;;;;;5120313;27;20534;-87
2020/12/16 03:06:59;;;;;;;1999.90;999.90;;;7.30;99.90;;;;;;5122117;27;20055;-87
2020/12/16 03:09:27;;;;;;;1999.90;999.90;;;7.30;99.90;;;;;;5114760;27;20446;-86
2020/12/16 03:11:56;;;;;;;1999.90;999.90;;;7.30;99.90;;;;;;5115617;28;20430;-87
2020/12/16 03:14:23;;;;;;;1999.90;999.90;;;7.30;99.90;;;;;;5113968;28;20078;-86
2020/12/16 03:16:54;;;;;;;1999.90;999.90;;;7.30;99.90;;;;;;5115020;28;20097;-87
2020/12/16 03:19:21;;;;;;;1999.90;999.90;;;7.30;99.90;;;;;;5115180;27;20124;-87
2020/12/16 03:21:48;;;;;;;1999.90;999.90;;;7.40;99.90;;;;;;5115266;28;20139;-87
2020/12/16 03:24:20;;;;;;;1999.90;999.90;;;7.40;99.90;;;;;;5114868;28;20066;-87
2020/12/16 03:26:47;;;;;;;1999.90;999.90;;;7.40;99.90;;;;;;5114927;28;20092;-87
2020/12/16 03:29:14;;;;;;;1999.90;999.90;;;7.40;99.90;;;;;;5114614;28;20120;-87
2020/12/16 03:31:41;;;;;;;1999.90;999.90;;;7.40;99.90;;;;;;5114082;28;20120;-87
2020/12/16 03:34:09;;;;;;;1999.90;999.90;;;7.40;99.90;;;;;;5113378;28;20485;-90
2020/12/16 03:36:36;;;;;;;1999.90;999.90;;;7.40;99.90;;;;;;5123830;27;20088;-90
2020/12/16 03:39:04;;;;;;;1999.90;999.90;;;7.30;99.90;;;;;;5119315;27;20075;-90
2020/12/16 03:41:33;;;;;;;1999.90;999.90;;;7.30;99.90;;;;;;5115767;28;20508;-90
2020/12/16 03:44:00;;;;;;;1999.90;999.90;;;7.40;99.90;;;;;;5101362;28;20401;-90
2020/12/16 03:46:27;;;;;;;1999.90;999.90;;;7.30;99.90;;;;;;5115621;28;20165;-90
2020/12/16 03:48:54;;;;;;;1999.90;999.90;;;7.30;99.90;;;;;;5116638;28;20053;-90
2020/12/16 03:51:22;;;;;;;1999.90;999.90;;;7.30;99.90;;;;;;5115539;28;20591;-90
2020/12/16 03:53:50;;;;;;;1999.90;999.90;;;7.30;99.90;;;;;;5117139;28;20059;-91
2020/12/16 03:56:17;;;;;;;1999.90;999.90;;;7.30;99.90;;;;;;5114175;28;20130;-90
2020/12/16 03:58:45;;;;;;;1999.90;999.90;;;7.30;99.90;;;;;;5114127;28;20375;-90
2020/12/16 04:01:14;;;;;;;1999.90;999.90;;;7.30;99.90;;;;;;5101013;28;20130;-91
2020/12/16 04:03:41;;;;;;;1999.90;999.90;;;7.30;99.90;;;;;;5122407;27;20146;-90
2020/12/16 04:06:09;;;;;;;1999.90;999.90;;;7.30;99.90;;;;;;5113872;28;20039;-90
2020/12/16 04:08:38;;;;;;;1999.90;999.90;;;7.30;99.90;;;;;;5106834;27;20046;-90
2020/12/16 04:11:10;;;;;;;1999.90;999.90;;;7.30;99.90;;;;;;5114193;28;20051;-90
2020/12/16 04:13:38;;;;;;;1999.90;999.90;;;7.30;99.90;;;;;;5114296;28;20059;-91
2020/12/16 04:16:06;;;;;;;1999.90;999.90;;;7.30;99.90;;;;;;5113009;28;20055;-91
2020/12/16 04:18:34;;;;;;;1999.90;999.90;;;7.30;99.90;;;;;;5114514;28;20051;-90
2020/12/16 04:21:01;;;;;;;1999.90;999.90;;;7.30;99.90;;;;;;5114769;28;20104;-90
2020/12/16 04:23:28;;;;;;;1999.90;999.90;;;7.30;99.90;;;;;;5113402;28;20071;-91
2020/12/16 04:25:56;;;;;;;1999.90;999.90;;;7.30;99.90;;;;;;5113693;28;20135;-90
2020/12/16 04:28:23;;;;;;;1999.90;999.90;;;7.30;99.90;;;;;;5113643;28;20138;-90
2020/12/16 04:30:49;;;;;;;1999.90;999.90;;;7.30;99.90;;;;;;5113553;28;20446;-90
2020/12/16 04:33:16;;;;;;;1999.90;999.90;;;7.30;99.90;;;;;;5113783;28;20075;-90
2020/12/16 04:35:43;;;;;;;1999.90;999.90;;;7.20;99.90;;;;;;5112032;28;20131;-90
2020/12/16 04:38:10;;;;;;;1999.90;999.90;;;7.20;99.90;;;;;;5111496;28;20051;-90
2020/12/16 04:40:38;;;;;;;1999.90;999.90;;;7.20;99.90;;;;;;5120752;27;20115;-91
2020/12/16 04:43:07;;;;;;;1999.90;999.90;;;7.20;99.90;;;;;;5118112;27;20112;-90
2020/12/16 04:45:36;;;;;;;1999.90;999.90;;;7.10;99.90;;;;;;5110784;28;20051;-90
2020/12/16 04:48:04;;;;;;;1999.90;999.90;;;7.20;99.90;;;;;;5112808;28;20048;-90
2020/12/16 04:50:31;;;;;;;1999.90;999.90;;;7.20;99.90;;;;;;5113520;28;20508;-90
2020/12/16 04:53:03;;;;;;;1999.90;999.90;;;7.10;99.90;;;;;;5113979;28;20092;-90
2020/12/16 04:55:32;;;;;;;1999.90;999.90;;;7.10;99.90;;;;;;5113142;28;20058;-90
2020/12/16 04:58:00;;;;;;;1999.90;999.90;;;7.10;99.90;;;;;;5113557;28;20051;-91
2020/12/16 05:00:30;;;;;;;1999.90;999.90;;;7.10;99.90;;;;;;5099261;28;20083;-91
2020/12/16 05:02:59;;;;;;;1999.90;999.90;;;7.10;99.90;;;;;;5113666;28;20048;-90
2020/12/16 05:05:27;;;;;;;1999.90;999.90;;;7.10;99.90;;;;;;5113537;28;20131;-90
2020/12/16 05:07:54;;;;;;;1999.90;999.90;;;7.10;99.90;;;;;;5113381;28;20539;-91
2020/12/16 05:10:32;;;;;;;1999.90;999.90;;;7.20;99.90;;;;;;5114086;28;20062;-90
2020/12/16 05:13:07;;;;;;;1999.90;999.90;;;7.20;99.90;;;;;;5102677;28;20132;-90
2020/12/16 05:15:35;;;;;;;1999.90;999.90;;;7.20;99.90;;;;;;5113427;28;20050;-88
2020/12/16 05:18:10;;;;;;;1999.90;999.90;;;7.10;99.90;;;;;;5100382;28;20044;-90
2020/12/16 05:20:40;;;;;;;1999.90;999.90;;;7.20;99.90;;;;;;5113486;28;20075;-91
2020/12/16 05:23:07;;;;;;;1999.90;999.90;;;7.10;99.90;;;;;;5112155;28;20644;-90
2020/12/16 05:25:36;;;;;;;1999.90;999.90;;;7.10;99.90;;;;;;5112981;28;20490;-90
2020/12/16 05:28:04;;;;;;;1999.90;999.90;;;7.10;99.90;;;;;;5115016;28;20048;-90
2020/12/16 05:30:32;;;;;;;1999.90;999.90;;;7.10;99.90;;;;;;5117109;27;20071;-90
2020/12/16 05:33:03;;;;;;;1999.90;999.90;;;7.10;99.90;;;;;;5121471;27;20108;-90
2020/12/16 05:35:34;;;;;;;1999.90;999.90;;;7.10;99.90;;;;;;5116945;28;20123;-90
2020/12/16 05:38:03;;;;;;;1999.90;999.90;;;7.10;99.90;;;;;;5115492;28;20122;-90
2020/12/16 05:40:33;;;;;;;1999.90;999.90;;;7.10;99.90;;;;;;5103250;28;20055;-89
2020/12/16 05:43:00;;;;;;;1999.90;999.90;;;7.10;99.90;;;;;;5117322;28;20060;-90
2020/12/16 05:45:28;;;;;;;1999.90;999.90;;;7.00;99.90;;;;;;5124975;27;20368;-91
2020/12/16 05:48:05;;;;;;;1999.90;999.90;;;7.10;99.90;;;;;;5116842;27;20131;-90
2020/12/16 05:50:35;;;;;;;1999.90;999.90;;;7.10;99.90;;;;;;5116510;28;20127;-90
2020/12/16 05:53:11;;;;;;;1999.90;999.90;;;7.00;99.90;;;;;;5116530;28;20176;-90
2020/12/16 05:55:54;;;;;;;1999.90;999.90;;;7.10;99.90;;;;;;5114497;28;20478;-91
2020/12/16 05:58:23;;;;;;;1999.90;999.90;;;7.00;99.90;;;;;;5116314;28;20486;-90
2020/12/16 06:00:53;;;;;;;1999.90;999.90;;;7.00;99.90;;;;;;5116663;28;20043;-90
2020/12/16 06:03:29;;;;;;;1999.90;999.90;;;7.10;99.90;;;;;;5133794;27;20047;-90
2020/12/16 06:05:58;;;;;;;1999.90;999.90;;;7.10;99.90;;;;;;5117650;27;20103;-90
2020/12/16 06:08:28;;;;;;;1999.90;999.90;;;7.10;99.90;;;;;;5116192;28;20551;-91
2020/12/16 06:10:56;;;;;;;1999.90;999.90;;;7.10;99.90;;;;;;5116446;28;20130;-90
2020/12/16 06:13:24;;;;;;;1999.90;999.90;;;7.10;99.90;;;;;;5116537;28;20055;-90
2020/12/16 06:16:01;;;;;;;1999.90;999.90;;;7.20;99.90;;;;;;5116305;28;20071;-90
2020/12/16 06:18:31;;;;;;;1999.90;999.90;;;7.20;99.90;;;;;;5116605;28;20581;-90
2020/12/16 06:21:00;;;;;;;1999.90;999.90;;;7.20;99.90;;;;;;5103521;28;20059;-91
2020/12/16 06:23:33;;;;;;;1999.90;999.90;;;7.20;99.90;;;;;;5127312;27;20108;-90
2020/12/16 06:26:13;;;;;;;1999.90;999.90;;;7.20;99.90;;;;;;5115762;28;20040;-90
2020/12/16 06:28:42;;;;;;;1999.90;999.90;;;7.20;99.90;;;;;;5115866;28;20811;-90
2020/12/16 06:31:25;;;;;;;1999.90;999.90;;;7.20;99.90;;;;;;5115284;28;20051;-90
2020/12/16 06:33:57;;;;;;;1999.90;999.90;;;7.20;99.90;;;;;;5114674;28;20138;-90
2020/12/16 06:36:30;;;;;;;1999.90;999.90;;;7.20;99.90;;;;;;5115548;28;20550;-90
2020/12/16 06:38:58;;;;;;;1999.90;999.90;;;7.20;99.90;;;;;;5115273;28;20043;-90
2020/12/16 06:41:27;;;;;;;1999.90;999.90;;;7.20;99.90;;;;;;5106862;28;20638;-90
2020/12/16 06:43:55;;;;;;;1999.90;999.90;;;7.20;99.90;;;;;;5108174;27;20446;-91
2020/12/16 06:46:49;;;;;;;1999.90;999.90;;;7.20;99.90;;;;;;5115402;28;20048;-90
2020/12/16 06:49:35;;;;;;;1999.90;999.90;;;7.20;99.90;;;;;;5115800;28;20112;-90
2020/12/16 06:52:06;;;;;;;1999.90;999.90;;;7.20;99.90;;;;;;5115601;28;20055;-90
2020/12/16 06:54:44;;;;;;;1999.90;999.90;;;7.20;99.90;;;;;;5115549;27;20456;-90
2020/12/16 06:57:19;;;;;;;1999.90;999.90;;;7.20;99.90;;;;;;5115394;28;20142;-91
2020/12/16 06:59:53;;;;;;;1999.90;999.90;;;7.20;99.90;;;;;;5115804;28;20054;-90
2020/12/16 07:02:29;;;;;;;1999.90;999.90;;;7.20;99.90;;;;;;5114836;28;20051;-90
2020/12/16 07:05:00;;;;;;;1999.90;999.90;;;7.20;99.90;;;;;;5115543;28;20574;-90
2020/12/16 07:07:41;;;;;;;1999.90;999.90;;;7.20;99.90;;;;;;5114954;28;20079;-90
2020/12/16 07:10:51;;;;;;;1999.90;999.90;;;7.20;99.90;;;;;;5119498;27;20046;-90
2020/12/16 07:13:29;;;;;;;1999.90;999.90;;;7.20;99.90;;;;;;5105642;28;20062;-90
2020/12/16 07:16:05;;;;;;;1999.90;999.90;;;7.20;99.90;;;;;;5116315;28;20044;-90
2020/12/16 07:18:45;;;;;;;1999.90;999.90;;;7.20;99.90;;;;;;5116568;27;20055;-90
2020/12/16 07:21:28;;;;;;;1999.90;999.90;;;7.20;99.90;;;;;;5115263;27;20051;-90
2020/12/16 07:24:04;;;;;;;1999.90;999.90;;;7.10;99.90;;;;;;5115010;28;20466;-88
2020/12/16 07:26:48;;;;;;;1999.90;999.90;;;7.20;99.90;;;;;;5115420;28;20055;-90
2020/12/16 07:29:25;;;;;;;1999.90;999.90;;;7.10;99.90;;;;;;5117616;28;20044;-90
2020/12/16 07:32:08;;;;;;;1999.90;999.90;;;7.10;99.90;;;;;;5115648;28;20055;-90
2020/12/16 07:34:45;;;;;;;1999.90;999.90;;;7.10;99.90;;;;;;5113227;28;20050;-90
2020/12/16 07:37:15;;;;;;;1999.90;999.90;;;7.10;99.90;;;;;;5107082;28;20112;-89
2020/12/16 07:39:48;;;;;;;1999.90;999.90;;;7.10;99.90;;;;;;5112759;28;20048;-90
2020/12/16 07:42:24;;;;;;;1999.90;999.90;;;7.10;99.90;;;;;;5116940;28;20052;-89
2020/12/16 07:44:54;;;;;;;1999.90;999.90;;;7.10;99.90;;;;;;5116295;28;20079;-89
2020/12/16 07:47:21;;;;;;;1999.90;999.90;;;7.10;99.90;;;;;;5116775;28;20478;-90
2020/12/16 07:49:48;;;;;;;1999.90;999.90;;;7.10;99.90;;;;;;5110548;28;20086;-89
2020/12/16 07:52:16;;;;;;;1999.90;999.90;;;7.10;99.90;;;;;;5112587;28;20043;-90
2020/12/16 07:54:45;;;;;;;1999.90;999.90;;;7.10;99.90;;;;;;5114973;28;20130;-89
2020/12/16 07:57:12;;;;;;;1999.90;999.90;;;7.10;99.90;;;;;;5114104;28;20069;-89
2020/12/16 07:59:39;;;;;;;1999.90;999.90;;;7.10;99.90;;;;;;5114629;28;20086;-90
2020/12/16 08:02:09;;;;;;;1999.90;999.90;;;7.10;99.90;;;;;;5114093;28;20044;-89
2020/12/16 08:04:37;;;;;;;1999.90;999.90;;;7.10;99.90;;;;;;5113305;28;20466;-90
2020/12/16 08:07:16;;;;;;;1999.90;999.90;;;7.10;99.90;;;;;;5113405;28;20106;-89
2020/12/16 08:09:57;;;;;;;1999.90;999.90;;;7.10;99.90;;;;;;5112965;28;20052;-89
2020/12/16 08:12:25;;;;;;;1999.90;999.90;;;7.00;99.90;;;;;;5114852;28;20052;-89
2020/12/16 08:15:19;;;;;;;1999.90;999.90;;;7.10;99.90;;;;;;5113644;28;20512;-89
2020/12/16 08:17:48;;;;;;;1999.90;999.90;;;7.10;99.90;;;;;;5106980;28;20056;-90
2020/12/16 08:20:16;;;;;;;1999.90;999.90;;;7.00;99.90;;;;;;5114353;28;20055;-90
2020/12/16 08:22:46;;;;;;;1999.90;999.90;;;7.00;99.90;;;;;;5114674;28;20074;-89
2020/12/16 08:25:14;;;;;;;1999.90;999.90;;;7.00;99.90;;;;;;5114072;28;20063;-89
2020/12/16 08:27:45;;;;;;;1999.90;999.90;;;7.00;99.90;;;;;;5112570;28;20465;-89
2020/12/16 08:30:15;;;;;;;1999.90;999.90;;;7.00;99.90;;;;;;5114166;28;20219;-89
2020/12/16 08:32:50;;;;;;;1999.90;999.90;;;7.00;99.90;;;;;;5111936;28;20047;-89
2020/12/16 08:35:19;;;;;;;1999.90;999.90;;;7.00;99.90;;;;;;5112006;28;20055;-89
2020/12/16 08:37:50;;;;;;;1999.90;999.90;;;7.00;99.90;;;;;;5113600;28;20078;-89
2020/12/16 08:40:18;;;;;;;1999.90;999.90;;;7.00;99.90;;;;;;5113485;28;20497;-88
2020/12/16 08:42:47;;;;;;;1999.90;999.90;;;7.00;99.90;;;;;;5113966;28;20108;-89
2020/12/16 08:45:16;;;;;;;1999.90;999.90;;;7.00;99.90;;;;;;5110504;28;20073;-89
2020/12/16 08:47:43;;;;;;;1999.90;999.90;;;7.00;99.90;;;;;;5114426;28;20104;-89
2020/12/16 08:50:14;;;;;;;1999.90;999.90;;;7.00;99.90;;;;;;5111584;28;20063;-89
2020/12/16 08:52:43;;;;;;;1999.90;999.90;;;7.00;99.90;;;;;;5112276;28;20059;-89
2020/12/16 08:55:13;;;;;;;1999.90;999.90;;;7.00;99.90;;;;;;5113139;28;20054;-89
2020/12/16 08:57:53;;;;;;;1999.90;999.90;;;7.00;99.90;;;;;;5112699;28;20055;-89
2020/12/16 09:00:26;;;;;;;1999.90;999.90;;;7.00;99.90;;;;;;5113277;28;20206;-89
2020/12/16 09:03:12;;;;;;;1999.90;999.90;;;7.10;99.90;;;;;;5110854;28;20082;-89
2020/12/16 09:05:39;;;;;;;;;;;7.10;99.90;;;;;;5105429;28;20135;-89
2020/12/16 09:08:13;;;;;;;1999.90;999.90;;;7.10;99.90;;;;;;5110526;28;20000;-89
2020/12/16 09:10:58;;;;;;;1999.90;999.90;;;7.10;99.90;;;;;;5113200;28;20048;-90
2020/12/16 09:13:30;;;;;;;1999.90;999.90;;;7.10;99.90;;;;;;5094639;28;20071;-89
2020/12/16 09:15:58;;;;;;;1999.90;999.90;;;7.00;99.90;;;;;;5092512;28;20044;-89
2020/12/16 09:18:29;;;;;;;1999.90;999.90;;;7.10;99.90;;;;;;5096445;28;20056;-89
2020/12/16 09:20:57;;;;;;;1999.90;999.90;;;7.10;99.90;;;;;;5092400;28;20082;-89
2020/12/16 09:23:25;;;;;;;1999.90;999.90;;;7.00;99.90;;;;;;5092801;28;20155;-90
2020/12/16 09:25:55;;;;;;;1999.90;999.90;;;7.00;99.90;;;;;;5093251;28;20048;-90
2020/12/16 09:28:33;;;;;;;1999.90;999.90;;;7.00;99.90;;;;;;5095970;28;20063;-89
2020/12/16 09:31:12;;;;;;;1999.90;999.90;;;7.00;99.90;;;;;;5085605;28;20638;-90
2020/12/16 09:33:39;;;;;;;1999.90;999.90;;;7.00;99.90;;;;;;5092468;28;20039;-91
2020/12/16 09:36:06;;;;;;;1999.90;999.90;;;7.00;99.90;;;;;;5091108;28;20055;-89
2020/12/16 09:38:33;;;;;;;1999.90;999.90;;;7.00;99.90;;;;;;5092387;28;20078;-89
2020/12/16 09:41:02;;;;;;;1999.90;999.90;;;7.00;99.90;;;;;;5093032;28;20052;-90
2020/12/16 09:43:42;;;;;;;1999.90;999.90;;;7.00;99.90;;;;;;5091384;28;20122;-89
2020/12/16 09:46:20;;;;;;;1999.90;999.90;;;6.90;99.90;;;;;;5092267;28;20048;-90
2020/12/16 09:48:49;;;;;;;1999.90;999.90;;;7.00;99.90;;;;;;5092521;28;20374;-90
2020/12/16 09:51:25;;;;;;;1999.90;999.90;;;7.00;99.90;;;;;;5092211;28;20059;-90
2020/12/16 09:53:52;;;;;;;1999.90;999.90;;;7.00;99.90;;;;;;5092228;28;20048;-90
2020/12/16 09:56:24;;;;;;;1999.90;999.90;;;7.00;99.90;;;;;;5087491;28;20043;-90
2020/12/16 09:58:52;;;;;;;1999.90;999.90;;;7.00;99.90;;;;;;5094609;28;20064;-90
2020/12/16 10:01:19;;;;;;;1999.90;999.90;;;7.00;99.90;;;;;;5092434;28;20098;-89
2020/12/16 10:03:48;;;;;;;1999.90;999.90;;;7.00;99.90;;;;;;5086433;28;20060;-89
2020/12/16 10:06:17;;;;;;;1999.90;999.90;;;7.00;99.90;;;;;;5096540;28;20447;-90
2020/12/16 10:08:45;;;;;;;1999.90;999.90;;;7.10;99.90;;;;;;5099022;28;20086;-90
2020/12/16 10:11:12;;;;;;;1999.90;999.90;;;7.00;99.90;;;;;;5092356;28;20047;-89
2020/12/16 10:13:44;;;;;;;1999.90;999.90;;;7.00;99.90;;;;;;5094251;28;20056;-90
2020/12/16 10:16:12;;;;;;;1999.90;999.90;;;7.10;99.90;;;;;;5095792;28;20051;-90
2020/12/16 10:18:39;;;;;;;1999.90;999.90;;;7.10;99.90;;;;;;5095811;28;20512;-90
2020/12/16 10:21:07;;;;;;;1999.90;999.90;;;7.10;99.90;;;;;;5095518;28;20091;-90
2020/12/16 10:23:34;;;;;;;1999.90;999.90;;;7.10;99.90;;;;;;5102137;28;20092;-89
2020/12/16 10:26:01;;;;;;;1999.90;999.90;;;7.10;99.90;;;;;;5100227;28;20056;-90
2020/12/16 10:28:33;;;;;;;1999.90;999.90;;;7.20;99.90;;;;;;5095402;28;20130;-89
2020/12/16 10:31:02;;;;;;;1999.90;999.90;;;7.30;99.90;;;;;;5094569;28;20059;-90
2020/12/16 10:33:32;;;;;;;1999.90;999.90;;;7.30;99.90;;;;;;5105900;28;20048;-90
2020/12/16 10:35:59;;;;;;;1999.90;999.90;;;7.40;99.90;;;;;;5097350;28;20120;-89
2020/12/16 10:38:27;;;;;;;1999.90;999.90;;;7.40;99.90;;;;;;5104822;28;20051;-90
2020/12/16 10:40:54;;;;;;;1999.90;999.90;;;7.40;99.90;;;;;;5095988;28;20051;-90
2020/12/16 10:43:21;;;;;;;1999.90;999.90;;;7.50;99.90;;;;;;5095059;28;20071;-90
2020/12/16 10:45:48;;;;;;;1999.90;999.90;;;7.50;99.90;;;;;;5095196;28;20052;-90
2020/12/16 10:48:16;;;;;;;1999.90;999.90;;;7.50;99.90;;;;;;5101464;28;20494;-89
2020/12/16 10:50:43;;;;;;;1999.90;999.90;;;7.60;99.90;;;;;;5098144;28;20039;-90
2020/12/16 10:53:18;;;;;;;1999.90;999.90;;;7.60;99.90;;;;;;5095093;28;20502;-88
2020/12/16 10:55:46;;;;;;;1999.90;999.90;;;7.60;99.90;;;;;;5096111;28;20039;-89
2020/12/16 10:58:14;;;;;;;1999.90;999.90;;;7.70;99.90;;;;;;5095240;28;20060;-89
2020/12/16 11:00:43;;;;;;;1999.90;999.90;;;7.70;99.90;;;;;;5094235;28;20048;-89
2020/12/16 11:03:11;;;;;;;1999.90;999.90;;;7.80;99.90;;;;;;5085172;28;20116;-90
2020/12/16 11:05:38;;;;;;;1999.90;999.90;;;7.80;99.90;;;;;;5099929;28;20075;-90
2020/12/16 11:08:05;;;;;;;1999.90;999.90;;;7.80;99.90;;;;;;5094823;28;20048;-91
2020/12/16 11:10:32;;;;;;;1999.90;999.90;;;7.80;99.90;;;;;;5094743;28;20052;-90
2020/12/16 11:12:59;;;;;;;1999.90;999.90;;;7.90;99.90;;;;;;5099671;28;20052;-90
2020/12/16 11:15:28;;;;;;;1999.90;999.90;;;7.90;99.90;;;;;;5104667;28;20055;-89
2020/12/16 11:17:55;;;;;;;1999.90;999.90;;;7.90;99.90;;;;;;5114928;28;20104;-90
2020/12/16 11:20:24;;;;;;;1999.90;999.90;;;7.90;99.90;;;;;;5115049;28;20796;-90
2020/12/16 11:22:54;;;;;;;1999.90;999.90;;;8.00;99.90;;;;;;5115508;28;20051;-90
2020/12/16 11:25:27;;;;;;;1999.90;999.90;;;8.00;99.90;;;;;;5122251;28;20044;-89
2020/12/16 11:27:54;;;;;;;1999.90;999.90;;;8.00;99.90;;;;;;5108619;28;20759;-90
2020/12/16 11:30:21;;;;;;;1999.90;999.90;;;8.00;99.90;;;;;;5118411;28;20567;-90
2020/12/16 11:32:49;;;;;;;1999.90;999.90;;;8.00;99.90;;;;;;5120311;27;20096;-90
2020/12/16 11:35:16;;;;;;;1999.90;999.90;;;8.10;99.90;;;;;;5118741;27;20043;-90
2020/12/16 11:37:44;;;;;;;1999.90;999.90;;;8.10;99.90;;;;;;5115374;28;20055;-91
2020/12/16 11:40:11;;;;;;;1999.90;999.90;;;8.10;99.90;;;;;;5114464;28;20085;-89
2020/12/16 11:42:38;;;;;;;1999.90;999.90;;;8.20;99.90;;;;;;5117715;27;20450;-90
2020/12/16 11:45:06;;;;;;;1999.90;999.90;;;8.20;99.90;;;;;;5119720;27;20079;-90
2020/12/16 11:47:33;;;;;;;1999.90;999.90;;;8.20;99.90;;;;;;5112591;28;20052;-90
2020/12/16 11:50:02;;;;;;;1999.90;999.90;;;8.30;99.90;;;;;;5100284;28;20499;-90
2020/12/16 11:52:29;;;;;;;1999.90;999.90;;;8.30;99.90;;;;;;5104130;27;20055;-90
2020/12/16 11:54:57;;;;;;;1999.90;999.90;;;8.30;99.90;;;;;;5117827;27;20058;-90
2020/12/16 11:57:25;;;;;;;1999.90;999.90;;;8.30;99.90;;;;;;5107343;27;20051;-90
2020/12/16 11:59:54;;;;;;;1999.90;999.90;;;8.40;99.90;;;;;;5114251;27;20105;-89
2020/12/16 12:02:22;;;;;;;1999.90;999.90;;;8.40;99.90;;;;;;5108181;27;20059;-89
2020/12/16 12:04:53;;;;;;;1999.90;999.90;;;8.40;99.90;;;;;;5112002;27;20047;-89
2020/12/16 12:07:21;;;;;;;1999.90;999.90;;;8.40;99.90;;;;;;5105461;28;20195;-89
2020/12/16 12:09:48;;;;;;;1999.90;999.90;;;8.40;99.90;;;;;;5111046;28;20490;-90
2020/12/16 12:12:16;;;;;;;1999.90;999.90;;;8.50;99.90;;;;;;5102401;27;20124;-89
2020/12/16 12:14:51;;;;;;;1999.90;999.90;;;8.50;99.90;;;;;;5113679;28;20055;-90
2020/12/16 12:17:38;;;;;;;1999.90;999.90;;;8.50;99.90;;;;;;5116767;27;20349;-85
2020/12/16 12:20:14;;;;;;;1999.90;999.90;;;8.50;99.90;;;;;;5111195;28;20104;-85
2020/12/16 12:22:43;;;;;;;1999.90;999.90;;;8.60;99.90;;;;;;5111783;28;20061;-85